Terminal Aerodrome Forecast
Issued by NWS

Home | Current Version | Previous Version | Text Only | Print | Product List | Glossary On
Versions: 1 2 3 4 5 6 7 8 9 10 11 12 13 14 15 16 17 18 19 20 21 22 23 24 25 26 27 28 29 30 31 32 33 34 35 36 37 38 39 40 41 42
000
FTUS43 KGRB 251956 AAA
TAFRHI
TAF AMD
KRHI 251956Z 2520/2618 18010G16KT P6SM VCTS FEW025 BKN100CB
      TEMPO 2520/2524 5SM BR BKN025
     FM260000 19008KT P6SM BKN120
     FM260800 21006KT P6SM OVC030 PROB30 2608/2610 4SM TSRA OVC007CB
     FM261000 22006KT P6SM OVC015 PROB30 2610/2612 4SM TSRA OVC007CB
     FM261400 24006KT P6SM OVC008
     FM261700 25006KT P6SM OVC010=

USA.gov is the U.S. government's official web portal to all federal, state and local government web resources and services.